Time;durP1;ratioP1;P1;durP2;ratioP2;P2;SDS_P1;SDS_P2;PMS_P1;PMS_P2;Temp;Humidity;BMP_temperature;BMP_pressure;BME280_temperature;BME280_humidity;BME280_pressure;Samples;Min_cycle;Max_cycle;Signal;HPM_P1;HPM_P2
2023/09/28 00:02:50;;;;;;;19.33;14.57;;;;;;;;;;4957788;28;20124;-65
2023/09/28 00:05:16;;;;;;;20.50;14.32;;;;;;;;;;4973989;28;20566;-64
2023/09/28 00:07:43;;;;;;;22.35;15.20;;;;;;;;;;4955360;28;20062;-65
2023/09/28 00:10:11;;;;;;;19.80;14.20;;;;;;;;;;4962632;28;20467;-65
2023/09/28 00:12:40;;;;;;;19.08;14.55;;;;;;;;;;4964570;28;20079;-65
2023/09/28 00:15:08;;;;;;;20.52;14.57;;;;;;;;;;4967572;28;20048;-65
2023/09/28 00:17:34;;;;;;;20.95;14.70;;;;;;;;;;4963806;28;20134;-65
2023/09/28 00:20:04;;;;;;;20.45;15.13;;;;;;;;;;4973280;28;20062;-65
2023/09/28 00:22:30;;;;;;;20.03;15.07;;;;;;;;;;4964208;28;20136;-65
2023/09/28 00:24:56;;;;;;;21.35;15.30;;;;;;;;;;4968517;28;20325;-65
2023/09/28 00:27:23;;;;;;;22.38;15.82;;;;;;;;;;4983039;28;20061;-66
2023/09/28 00:29:50;;;;;;;21.92;15.48;;;;;;;;;;4982627;28;20053;-66
2023/09/28 00:32:17;;;;;;;21.17;15.75;;;;;;;;;;4958247;28;20062;-65
2023/09/28 00:34:43;;;;;;;20.48;14.85;;;;;;;;;;4970304;28;20044;-65
2023/09/28 00:37:11;;;;;;;21.42;15.00;;;;;;;;;;4968532;28;20487;-65
2023/09/28 00:39:37;;;;;;;26.15;17.13;;;;;;;;;;4973020;28;20047;-65
2023/09/28 00:42:05;;;;;;;21.58;15.80;;;;;;;;;;4959659;28;20051;-65
2023/09/28 00:44:31;;;;;;;23.92;17.20;;;;;;;;;;4962932;28;20051;-66
2023/09/28 00:46:57;;;;;;;28.65;20.50;;;;;;;;;;4960397;28;20057;-65
2023/09/28 00:49:25;;;;;;;31.13;19.08;;;;;;;;;;4961801;28;20043;-65
2023/09/28 00:51:51;;;;;;;23.45;17.00;;;;;;;;;;4961163;28;20054;-65
2023/09/28 00:54:21;;;;;;;21.17;16.00;;;;;;;;;;4969210;28;20134;-65
2023/09/28 00:56:48;;;;;;;20.90;15.43;;;;;;;;;;4961542;28;20495;-64
2023/09/28 00:59:15;;;;;;;19.25;14.90;;;;;;;;;;4961771;28;20119;-65
2023/09/28 01:01:40;;;;;;;20.48;14.50;;;;;;;;;;4964039;28;20043;-65
2023/09/28 01:04:07;;;;;;;20.63;14.43;;;;;;;;;;4959037;28;20054;-64
2023/09/28 01:06:35;;;;;;;21.42;14.70;;;;;;;;;;4961549;28;20062;-65
2023/09/28 01:09:06;;;;;;;20.05;13.65;;;;;;;;;;4966586;28;20057;-65
2023/09/28 01:11:34;;;;;;;15.27;12.88;;;;;;;;;;4962935;28;20043;-65
2023/09/28 01:14:02;;;;;;;14.98;11.70;;;;;;;;;;4965893;28;20043;-65
2023/09/28 01:16:27;;;;;;;16.55;12.27;;;;;;;;;;4971285;28;20483;-65
2023/09/28 01:18:54;;;;;;;16.95;11.23;;;;;;;;;;4978886;28;20057;-63
2023/09/28 01:21:20;;;;;;;13.50;10.70;;;;;;;;;;4969802;28;20051;-64
2023/09/28 01:23:48;;;;;;;17.42;11.73;;;;;;;;;;4980141;28;20050;-64
2023/09/28 01:26:13;;;;;;;13.60;10.98;;;;;;;;;;4971949;28;20070;-64
2023/09/28 01:28:40;;;;;;;15.63;11.50;;;;;;;;;;4979954;28;20046;-64
2023/09/28 01:31:06;;;;;;;14.95;11.10;;;;;;;;;;4973788;28;20070;-65
2023/09/28 01:33:32;;;;;;;14.48;11.50;;;;;;;;;;4952898;28;20419;-65
2023/09/28 01:35:58;;;;;;;16.90;12.10;;;;;;;;;;4953641;28;20054;-64
2023/09/28 01:38:31;;;;;;;16.40;12.10;;;;;;;;;;4953191;28;20051;-64
2023/09/28 01:40:59;;;;;;;16.55;11.55;;;;;;;;;;4953104;28;20058;-64
2023/09/28 01:43:25;;;;;;;15.95;11.50;;;;;;;;;;4955683;28;20051;-64
2023/09/28 01:45:51;;;;;;;15.20;10.70;;;;;;;;;;4957198;28;20055;-65
2023/09/28 01:48:18;;;;;;;16.65;11.82;;;;;;;;;;4957085;28;20052;-65
2023/09/28 01:50:44;;;;;;;14.57;11.50;;;;;;;;;;4956763;28;20047;-64
2023/09/28 01:53:11;;;;;;;14.65;11.40;;;;;;;;;;4956827;28;20089;-64
2023/09/28 01:55:37;;;;;;;14.65;11.70;;;;;;;;;;4957220;28;20047;-65
2023/09/28 01:58:07;;;;;;;15.18;11.55;;;;;;;;;;4956982;28;20364;-63
2023/09/28 02:00:33;;;;;;;;;;;;;;;;;;4957557;28;20392;-64
2023/09/28 02:02:59;;;;;;;14.85;10.85;;;;;;;;;;4957085;28;19922;-62
2023/09/28 02:05:25;;;;;;;16.10;11.77;;;;;;;;;;4960868;28;20051;-63
2023/09/28 02:07:52;;;;;;;15.82;12.48;;;;;;;;;;4956802;28;20051;-64
2023/09/28 02:10:18;;;;;;;13.35;11.07;;;;;;;;;;4956426;28;20467;-64
2023/09/28 02:12:45;;;;;;;15.27;11.80;;;;;;;;;;4956475;28;20043;-65
2023/09/28 02:15:14;;;;;;;15.45;12.25;;;;;;;;;;4956926;28;20496;-64
2023/09/28 02:17:42;;;;;;;16.65;12.07;;;;;;;;;;4956221;28;20051;-64
2023/09/28 02:20:09;;;;;;;17.50;12.38;;;;;;;;;;4956261;28;20574;-64
2023/09/28 02:22:36;;;;;;;17.77;12.82;;;;;;;;;;4956515;28;20089;-64
2023/09/28 02:25:02;;;;;;;14.07;10.88;;;;;;;;;;4956705;28;20432;-64
2023/09/28 02:27:29;;;;;;;15.57;11.55;;;;;;;;;;4965079;28;20057;-64
2023/09/28 02:29:55;;;;;;;15.00;11.25;;;;;;;;;;4962942;28;20043;-65
2023/09/28 02:32:23;;;;;;;14.68;11.13;;;;;;;;;;4956579;28;20111;-65
2023/09/28 02:34:48;;;;;;;17.05;12.52;;;;;;;;;;4960235;28;20497;-64
2023/09/28 02:37:15;;;;;;;14.75;11.70;;;;;;;;;;4967819;28;20047;-63
2023/09/28 02:39:41;;;;;;;15.18;11.55;;;;;;;;;;4967307;28;20051;-63
2023/09/28 02:42:08;;;;;;;13.98;11.38;;;;;;;;;;4969437;28;20118;-64
2023/09/28 02:44:34;;;;;;;17.00;11.77;;;;;;;;;;4956165;28;20102;-64
2023/09/28 02:47:04;;;;;;;17.50;11.43;;;;;;;;;;4956049;28;20055;-64
2023/09/28 02:49:31;;;;;;;15.43;11.07;;;;;;;;;;4956877;28;20047;-64
2023/09/28 02:51:59;;;;;;;14.13;10.35;;;;;;;;;;4972263;28;20419;-64
2023/09/28 02:54:26;;;;;;;14.55;10.35;;;;;;;;;;4975605;28;20047;-63
2023/09/28 02:56:51;;;;;;;13.15;10.50;;;;;;;;;;4976220;28;20044;-64
2023/09/28 02:59:21;;;;;;;15.05;10.77;;;;;;;;;;4963848;28;20062;-65
2023/09/28 03:01:47;;;;;;;14.60;10.65;;;;;;;;;;4956413;28;20043;-62
2023/09/28 03:04:15;;;;;;;14.25;10.70;;;;;;;;;;4956229;28;20471;-63
2023/09/28 03:06:42;;;;;;;13.60;9.77;;;;;;;;;;4955814;28;20046;-63
2023/09/28 03:09:09;;;;;;;13.95;10.68;;;;;;;;;;4955478;28;20047;-62
2023/09/28 03:11:34;;;;;;;13.13;9.98;;;;;;;;;;4963480;28;20047;-64
2023/09/28 03:14:02;;;;;;;15.80;11.27;;;;;;;;;;4955808;28;20496;-64
2023/09/28 03:16:28;;;;;;;13.98;9.88;;;;;;;;;;4963498;28;20529;-64
2023/09/28 03:18:57;;;;;;;12.38;9.77;;;;;;;;;;4959588;28;20090;-64
2023/09/28 03:21:23;;;;;;;14.40;10.48;;;;;;;;;;4966371;28;20047;-63
2023/09/28 03:23:51;;;;;;;13.20;10.48;;;;;;;;;;4955488;28;20481;-62
2023/09/28 03:26:18;;;;;;;16.90;10.65;;;;;;;;;;4955438;28;20554;-63
2023/09/28 03:28:43;;;;;;;15.88;11.13;;;;;;;;;;4958181;28;20509;-61
2023/09/28 03:31:10;;;;;;;15.98;10.45;;;;;;;;;;4968418;28;20051;-62
2023/09/28 03:33:35;;;;;;;14.80;11.52;;;;;;;;;;4955153;28;20050;-62
2023/09/28 03:36:02;;;;;;;14.55;10.30;;;;;;;;;;4955149;28;20417;-64
2023/09/28 03:38:28;;;;;;;15.70;10.88;;;;;;;;;;4954824;28;20048;-63
2023/09/28 03:40:56;;;;;;;13.40;10.60;;;;;;;;;;4954890;28;20050;-63
2023/09/28 03:43:23;;;;;;;13.07;9.30;;;;;;;;;;4971015;28;20046;-63
2023/09/28 03:45:49;;;;;;;11.63;9.07;;;;;;;;;;4962883;28;20047;-64
2023/09/28 03:48:16;;;;;;;13.85;9.40;;;;;;;;;;4954834;28;20122;-64
2023/09/28 03:50:43;;;;;;;13.60;10.15;;;;;;;;;;4962673;28;20415;-64
2023/09/28 03:53:10;;;;;;;15.32;9.82;;;;;;;;;;4954738;28;20630;-63
2023/09/28 03:55:37;;;;;;;13.18;9.18;;;;;;;;;;4954851;28;20460;-63
2023/09/28 03:58:05;;;;;;;12.85;9.43;;;;;;;;;;4954479;28;20102;-64
2023/09/28 04:00:31;;;;;;;14.95;9.57;;;;;;;;;;4963667;28;20047;-64
2023/09/28 04:02:59;;;;;;;12.25;8.60;;;;;;;;;;4966107;28;20051;-63
2023/09/28 04:05:25;;;;;;;10.30;8.40;;;;;;;;;;4964440;28;20047;-63
2023/09/28 04:07:52;;;;;;;11.15;8.45;;;;;;;;;;4954474;28;20079;-63
2023/09/28 04:10:19;;;;;;;10.88;8.38;;;;;;;;;;4954211;28;20530;-64
2023/09/28 04:12:45;;;;;;;13.43;8.50;;;;;;;;;;4963856;28;20051;-64
2023/09/28 04:15:13;;;;;;;11.55;9.45;;;;;;;;;;4977288;28;20043;-64
2023/09/28 04:17:40;;;;;;;11.55;9.60;;;;;;;;;;4970343;28;20043;-63
2023/09/28 04:20:09;;;;;;;12.35;8.75;;;;;;;;;;4954076;28;20047;-63
2023/09/28 04:22:36;;;;;;;13.00;8.90;;;;;;;;;;4954223;28;20047;-64
2023/09/28 04:25:03;;;;;;;12.38;8.75;;;;;;;;;;4954415;28;20514;-64
2023/09/28 04:27:30;;;;;;;12.50;8.77;;;;;;;;;;4955219;28;20142;-63
2023/09/28 04:29:57;;;;;;;12.80;9.35;;;;;;;;;;4968858;28;20047;-65
2023/09/28 04:32:27;;;;;;;11.75;8.75;;;;;;;;;;4964758;28;20144;-65
2023/09/28 04:34:54;;;;;;;11.43;8.93;;;;;;;;;;4973542;28;20130;-64
2023/09/28 04:37:20;;;;;;;13.43;9.35;;;;;;;;;;4967207;28;20043;-64
2023/09/28 04:39:47;;;;;;;11.93;8.75;;;;;;;;;;4964902;28;20097;-64
2023/09/28 04:42:14;;;;;;;12.13;8.93;;;;;;;;;;4958643;28;20047;-63
2023/09/28 04:44:43;;;;;;;10.75;8.57;;;;;;;;;;4953746;28;20043;-63
2023/09/28 04:47:10;;;;;;;12.98;8.77;;;;;;;;;;4967945;28;20043;-64
2023/09/28 04:49:40;;;;;;;13.00;9.63;;;;;;;;;;4972881;28;20042;-64
2023/09/28 04:52:07;;;;;;;12.45;8.77;;;;;;;;;;4953842;28;20101;-64
2023/09/28 04:54:33;;;;;;;12.15;9.38;;;;;;;;;;4953889;28;20051;-65
2023/09/28 04:57:00;;;;;;;13.25;8.63;;;;;;;;;;4954029;28;20049;-64
2023/09/28 04:59:27;;;;;;;12.43;8.98;;;;;;;;;;4953274;28;20054;-64
2023/09/28 05:01:54;;;;;;;16.05;9.70;;;;;;;;;;4965575;28;20049;-65
2023/09/28 05:04:21;;;;;;;11.77;9.30;;;;;;;;;;4979583;28;20686;-64
2023/09/28 05:06:49;;;;;;;12.20;9.27;;;;;;;;;;4964709;28;20095;-65
2023/09/28 05:09:16;;;;;;;13.25;9.27;;;;;;;;;;4953685;28;20571;-64
2023/09/28 05:11:42;;;;;;;16.67;9.32;;;;;;;;;;4969413;28;20782;-64
2023/09/28 05:14:09;;;;;;;13.07;8.20;;;;;;;;;;4954069;28;20055;-64
2023/09/28 05:16:36;;;;;;;11.80;8.60;;;;;;;;;;4953456;28;20047;-65
2023/09/28 05:19:02;;;;;;;12.05;8.52;;;;;;;;;;4963001;28;20055;-65
2023/09/28 05:21:29;;;;;;;10.98;8.45;;;;;;;;;;4969399;28;20074;-64
2023/09/28 05:23:57;;;;;;;14.60;10.18;;;;;;;;;;4953530;28;20161;-65
2023/09/28 05:26:23;;;;;;;14.68;8.77;;;;;;;;;;4953552;28;20048;-64
2023/09/28 05:28:50;;;;;;;12.35;9.65;;;;;;;;;;4965002;28;20554;-65
2023/09/28 05:31:17;;;;;;;13.85;9.48;;;;;;;;;;4969958;28;20046;-64
2023/09/28 05:33:43;;;;;;;13.75;9.68;;;;;;;;;;4978082;28;20049;-65
2023/09/28 05:36:10;;;;;;;13.55;9.25;;;;;;;;;;4968686;28;20478;-64
2023/09/28 05:38:36;;;;;;;13.93;9.00;;;;;;;;;;4972418;28;20133;-64
2023/09/28 05:41:04;;;;;;;17.40;8.85;;;;;;;;;;4966175;28;20638;-64
2023/09/28 05:43:31;;;;;;;13.70;9.10;;;;;;;;;;4969977;28;20077;-64
2023/09/28 05:45:58;;;;;;;12.20;8.68;;;;;;;;;;4973700;28;20560;-64
2023/09/28 05:48:25;;;;;;;16.15;9.32;;;;;;;;;;4969311;28;20050;-64
2023/09/28 05:50:51;;;;;;;13.43;8.50;;;;;;;;;;4963514;28;20135;-63
2023/09/28 05:53:18;;;;;;;12.00;8.85;;;;;;;;;;4967365;28;20130;-64
2023/09/28 05:55:45;;;;;;;12.63;8.70;;;;;;;;;;4969803;28;20051;-63
2023/09/28 05:58:13;;;;;;;11.35;8.65;;;;;;;;;;4970521;28;20051;-63
2023/09/28 06:00:40;;;;;;;12.75;8.93;;;;;;;;;;4978435;28;20087;-64
2023/09/28 06:03:07;;;;;;;13.13;8.82;;;;;;;;;;4967890;28;20047;-63
2023/09/28 06:05:34;;;;;;;13.80;9.38;;;;;;;;;;4965990;28;20502;-62
2023/09/28 06:08:00;;;;;;;11.65;8.10;;;;;;;;;;4967975;28;20150;-64
2023/09/28 06:10:27;;;;;;;12.48;9.35;;;;;;;;;;4969726;28;20417;-64
2023/09/28 06:12:54;;;;;;;12.77;9.02;;;;;;;;;;4969364;28;20047;-64
2023/09/28 06:15:22;;;;;;;13.88;9.02;;;;;;;;;;4968587;28;20511;-64
2023/09/28 06:17:49;;;;;;;11.80;9.07;;;;;;;;;;4969533;28;20130;-65
2023/09/28 06:20:17;;;;;;;15.00;9.52;;;;;;;;;;4962788;28;20051;-64
2023/09/28 06:22:43;;;;;;;13.32;9.93;;;;;;;;;;4971896;28;20505;-63
2023/09/28 06:25:10;;;;;;;16.40;10.88;;;;;;;;;;4966023;28;20491;-62
2023/09/28 06:27:38;;;;;;;20.48;12.35;;;;;;;;;;4952645;28;20071;-64
2023/09/28 06:30:06;;;;;;;20.67;12.45;;;;;;;;;;4955979;28;20047;-64
2023/09/28 06:32:34;;;;;;;17.10;11.90;;;;;;;;;;4957187;28;20134;-64
2023/09/28 06:35:01;;;;;;;16.65;11.95;;;;;;;;;;4970702;28;20055;-62
2023/09/28 06:37:27;;;;;;;19.17;11.10;;;;;;;;;;4956195;28;20063;-63
2023/09/28 06:39:55;;;;;;;12.93;8.95;;;;;;;;;;4955959;28;20058;-63
2023/09/28 06:42:21;;;;;;;16.05;9.13;;;;;;;;;;4955981;28;20077;-63
2023/09/28 06:44:48;;;;;;;12.55;8.70;;;;;;;;;;4955842;28;20135;-64
2023/09/28 06:47:15;;;;;;;12.32;8.50;;;;;;;;;;4962879;28;20491;-62
2023/09/28 06:49:43;;;;;;;11.27;7.75;;;;;;;;;;4974349;28;20057;-64
2023/09/28 06:52:10;;;;;;;10.93;8.25;;;;;;;;;;4975161;28;20085;-64
2023/09/28 06:54:38;;;;;;;14.00;8.57;;;;;;;;;;4974997;28;20043;-65
2023/09/28 06:57:04;;;;;;;10.20;7.45;;;;;;;;;;4962060;28;20052;-65
2023/09/28 06:59:31;;;;;;;10.93;7.65;;;;;;;;;;4971617;28;20525;-65
2023/09/28 07:01:58;;;;;;;12.43;7.32;;;;;;;;;;4960259;28;20105;-65
2023/09/28 07:04:24;;;;;;;9.95;8.07;;;;;;;;;;4966434;28;20415;-64
2023/09/28 07:06:52;;;;;;;14.15;7.97;;;;;;;;;;4955935;28;20138;-65
2023/09/28 07:09:19;;;;;;;10.90;6.75;;;;;;;;;;4955594;28;20047;-64
2023/09/28 07:11:45;;;;;;;11.80;7.60;;;;;;;;;;4955797;28;20051;-66
2023/09/28 07:14:13;;;;;;;10.50;7.20;;;;;;;;;;4964143;28;20051;-64
2023/09/28 07:16:39;;;;;;;10.68;7.13;;;;;;;;;;4973840;28;20047;-62
2023/09/28 07:19:06;;;;;;;10.95;7.95;;;;;;;;;;4961560;28;20395;-64
2023/09/28 07:21:33;;;;;;;14.00;7.88;;;;;;;;;;4955521;28;20138;-63
2023/09/28 07:24:03;;;;;;;12.55;8.13;;;;;;;;;;4960115;28;20043;-63
2023/09/28 07:26:30;;;;;;;13.25;8.70;;;;;;;;;;4958681;28;20047;-62
2023/09/28 07:28:57;;;;;;;11.75;8.07;;;;;;;;;;4974864;28;20055;-64
2023/09/28 07:31:24;;;;;;;9.20;7.30;;;;;;;;;;4974367;28;20073;-63
2023/09/28 07:33:51;;;;;;;10.77;6.35;;;;;;;;;;4967096;28;20051;-64
2023/09/28 07:36:18;;;;;;;8.98;6.32;;;;;;;;;;4974382;28;20141;-64
2023/09/28 07:38:47;;;;;;;14.02;7.60;;;;;;;;;;4974721;28;20047;-64
2023/09/28 07:41:15;;;;;;;11.73;6.65;;;;;;;;;;4973307;28;20059;-63
2023/09/28 07:43:41;;;;;;;9.68;6.53;;;;;;;;;;4972191;28;20054;-63
2023/09/28 07:46:08;;;;;;;8.88;6.18;;;;;;;;;;4960766;28;20057;-62
2023/09/28 07:48:35;;;;;;;8.57;5.43;;;;;;;;;;4956957;28;20158;-64
2023/09/28 07:51:01;;;;;;;8.65;5.57;;;;;;;;;;4967741;28;20054;-64
2023/09/28 07:53:28;;;;;;;8.23;5.30;;;;;;;;;;4974482;28;20043;-64
2023/09/28 07:55:54;;;;;;;8.48;5.75;;;;;;;;;;4974013;28;20133;-64
2023/09/28 07:58:22;;;;;;;10.57;5.60;;;;;;;;;;4958281;28;20535;-63
2023/09/28 08:00:49;;;;;;;7.85;5.38;;;;;;;;;;4973724;28;20129;-64
2023/09/28 08:03:16;;;;;;;7.82;5.38;;;;;;;;;;4966724;28;20047;-64
2023/09/28 08:05:42;;;;;;;7.97;5.20;;;;;;;;;;4973328;28;20051;-64
2023/09/28 08:08:09;;;;;;;15.60;5.45;;;;;;;;;;4967871;28;20131;-65
2023/09/28 08:10:36;;;;;;;8.02;5.00;;;;;;;;;;4964360;28;20422;-64
2023/09/28 08:13:03;;;;;;;8.05;5.70;;;;;;;;;;4960770;28;20484;-64
2023/09/28 08:15:32;;;;;;;10.82;5.40;;;;;;;;;;4970792;28;20057;-65
2023/09/28 08:17:58;;;;;;;7.63;5.03;;;;;;;;;;4969201;28;20502;-64
2023/09/28 08:20:26;;;;;;;7.85;5.13;;;;;;;;;;4970037;28;20051;-64
2023/09/28 08:22:53;;;;;;;7.28;4.57;;;;;;;;;;4958041;28;20054;-63
2023/09/28 08:25:19;;;;;;;8.65;5.63;;;;;;;;;;4973569;28;20046;-64
2023/09/28 08:27:46;;;;;;;8.45;5.45;;;;;;;;;;4970960;28;20130;-64
2023/09/28 08:30:13;;;;;;;6.68;4.65;;;;;;;;;;4960454;28;20061;-64
2023/09/28 08:32:41;;;;;;;7.55;5.20;;;;;;;;;;4973617;28;20471;-64
2023/09/28 08:35:11;;;;;;;7.20;5.22;;;;;;;;;;4967923;28;20130;-64
2023/09/28 08:37:37;;;;;;;13.55;5.72;;;;;;;;;;4963739;28;20044;-63
2023/09/28 08:40:04;;;;;;;11.98;5.97;;;;;;;;;;4972968;28;20086;-64
2023/09/28 08:42:33;;;;;;;8.05;5.47;;;;;;;;;;4965477;28;20145;-64
2023/09/28 08:45:02;;;;;;;10.18;5.78;;;;;;;;;;4968439;28;20082;-62
2023/09/28 08:47:34;;;;;;;8.05;5.00;;;;;;;;;;4970028;28;20046;-64
2023/09/28 08:50:03;;;;;;;10.50;5.20;;;;;;;;;;4961859;28;20106;-63
2023/09/28 08:52:30;;;;;;;7.72;4.85;;;;;;;;;;4962092;28;20122;-65
2023/09/28 08:54:58;;;;;;;9.93;5.80;;;;;;;;;;4973388;28;20078;-63
2023/09/28 08:57:26;;;;;;;9.77;5.90;;;;;;;;;;4972951;28;20157;-64
2023/09/28 08:59:53;;;;;;;9.05;5.57;;;;;;;;;;4973078;28;20121;-64
2023/09/28 09:02:21;;;;;;;8.65;5.53;;;;;;;;;;4972890;28;20138;-63
2023/09/28 09:04:47;;;;;;;11.55;5.97;;;;;;;;;;4953926;28;20122;-64
2023/09/28 09:07:16;;;;;;;9.82;5.63;;;;;;;;;;4960105;28;20209;-64
2023/09/28 09:09:45;;;;;;;12.52;6.57;;;;;;;;;;4964980;28;20050;-65
2023/09/28 09:12:12;;;;;;;8.13;5.05;;;;;;;;;;4972628;28;20050;-64
2023/09/28 09:14:39;;;;;;;7.97;5.30;;;;;;;;;;4964651;28;20078;-63
2023/09/28 09:17:06;;;;;;;8.50;5.78;;;;;;;;;;4967708;28;20543;-64
2023/09/28 09:19:33;;;;;;;9.65;5.75;;;;;;;;;;4962551;28;20056;-64
2023/09/28 09:21:59;;;;;;;8.75;5.22;;;;;;;;;;4972881;28;20499;-64
2023/09/28 09:24:27;;;;;;;11.10;5.68;;;;;;;;;;4973053;28;20505;-64
2023/09/28 09:26:55;;;;;;;10.25;5.63;;;;;;;;;;4972877;28;20129;-63
2023/09/28 09:29:22;;;;;;;8.50;6.03;;;;;;;;;;4972805;28;20410;-63
2023/09/28 09:31:50;;;;;;;9.02;6.15;;;;;;;;;;4972208;28;20078;-64
2023/09/28 09:34:19;;;;;;;9.25;6.53;;;;;;;;;;4972359;28;20043;-63
2023/09/28 09:36:51;;;;;;;10.52;5.35;;;;;;;;;;4972658;28;20166;-63
2023/09/28 09:39:23;;;;;;;10.13;5.32;;;;;;;;;;4972398;28;20086;-64
2023/09/28 09:41:53;;;;;;;10.57;6.22;;;;;;;;;;4972652;28;20054;-64
2023/09/28 09:44:20;;;;;;;9.50;5.82;;;;;;;;;;4972593;28;20137;-64
2023/09/28 09:46:48;;;;;;;9.48;5.80;;;;;;;;;;4972691;28;20078;-64
2023/09/28 09:49:16;;;;;;;9.05;5.18;;;;;;;;;;4972501;28;20126;-64
2023/09/28 09:51:46;;;;;;;9.30;5.70;;;;;;;;;;4956248;28;20455;-63
2023/09/28 09:54:14;;;;;;;9.77;6.38;;;;;;;;;;4972439;28;20094;-63
2023/09/28 09:56:44;;;;;;;11.27;6.30;;;;;;;;;;4956244;28;20081;-64
2023/09/28 09:59:15;;;;;;;9.27;6.00;;;;;;;;;;4972687;28;20666;-64
2023/09/28 10:01:47;;;;;;;8.20;5.20;;;;;;;;;;4972356;28;20534;-64
2023/09/28 10:04:16;;;;;;;9.23;5.88;;;;;;;;;;4973963;28;20524;-64
2023/09/28 10:06:47;;;;;;;10.77;6.20;;;;;;;;;;4976078;28;20062;-64
2023/09/28 10:09:15;;;;;;;8.48;5.53;;;;;;;;;;4975853;28;20142;-64
2023/09/28 10:11:42;;;;;;;10.60;5.70;;;;;;;;;;4975804;28;20042;-64
2023/09/28 10:14:09;;;;;;;8.40;5.60;;;;;;;;;;4975651;28;20086;-65
2023/09/28 10:16:37;;;;;;;8.27;5.78;;;;;;;;;;4975391;28;20549;-63
2023/09/28 10:19:05;;;;;;;11.35;6.00;;;;;;;;;;4975670;28;20086;-63
2023/09/28 10:21:35;;;;;;;8.35;5.40;;;;;;;;;;4975575;28;20098;-64
2023/09/28 10:24:09;;;;;;;8.63;6.05;;;;;;;;;;4963011;28;20058;-64
2023/09/28 10:26:36;;;;;;;8.98;5.80;;;;;;;;;;4973520;28;20043;-63
2023/09/28 10:29:04;;;;;;;8.52;5.70;;;;;;;;;;4975312;28;20061;-63
2023/09/28 10:31:31;;;;;;;10.13;6.07;;;;;;;;;;4975396;28;20134;-64
2023/09/28 10:34:00;;;;;;;8.20;5.60;;;;;;;;;;4975461;28;20046;-63
2023/09/28 10:36:27;;;;;;;7.72;5.38;;;;;;;;;;4975406;28;20054;-63
2023/09/28 10:39:13;;;;;;;9.13;5.57;;;;;;;;;;4975356;28;20105;-64
2023/09/28 10:41:41;;;;;;;7.53;5.47;;;;;;;;;;4957359;28;20055;-64
2023/09/28 10:44:16;;;;;;;7.15;5.32;;;;;;;;;;4955828;29;20047;-63
2023/09/28 10:46:43;;;;;;;9.98;5.32;;;;;;;;;;4958249;28;20134;-64
2023/09/28 10:49:14;;;;;;;8.73;6.03;;;;;;;;;;4975412;28;20089;-64
2023/09/28 10:51:41;;;;;;;8.93;5.00;;;;;;;;;;4975172;28;20051;-64
2023/09/28 10:54:08;;;;;;;7.78;5.38;;;;;;;;;;4975529;28;20129;-64
2023/09/28 10:56:35;;;;;;;6.30;4.75;;;;;;;;;;4975364;28;20149;-64
2023/09/28 10:59:04;;;;;;;9.52;5.07;;;;;;;;;;4974909;28;20082;-63
2023/09/28 11:01:32;;;;;;;8.30;4.95;;;;;;;;;;4958303;28;20051;-63
2023/09/28 11:03:58;;;;;;;8.40;5.40;;;;;;;;;;4968629;28;20486;-64
2023/09/28 11:06:28;;;;;;;9.15;5.35;;;;;;;;;;4975124;28;20061;-64
2023/09/28 11:08:57;;;;;;;8.35;5.32;;;;;;;;;;4975295;28;20047;-64
2023/09/28 11:11:24;;;;;;;9.05;5.43;;;;;;;;;;4974709;28;20051;-64
2023/09/28 11:13:51;;;;;;;8.65;4.95;;;;;;;;;;4966556;28;20050;-64
2023/09/28 11:16:18;;;;;;;8.20;5.38;;;;;;;;;;4974880;28;20051;-64
2023/09/28 11:18:46;;;;;;;8.15;4.95;;;;;;;;;;4974439;28;20054;-64
2023/09/28 11:21:13;;;;;;;7.32;5.15;;;;;;;;;;4960032;28;20463;-63
2023/09/28 11:23:41;;;;;;;7.43;5.20;;;;;;;;;;4972650;28;20130;-66
2023/09/28 11:26:10;;;;;;;9.52;5.28;;;;;;;;;;4974258;28;20510;-66
2023/09/28 11:28:37;;;;;;;7.80;5.00;;;;;;;;;;4958163;28;20415;-65
2023/09/28 11:31:07;;;;;;;7.20;4.85;;;;;;;;;;4961040;28;20067;-65
2023/09/28 11:33:34;;;;;;;8.70;4.95;;;;;;;;;;4954526;28;20126;-64
2023/09/28 11:36:01;;;;;;;7.65;4.88;;;;;;;;;;4967882;28;20513;-64
2023/09/28 11:38:29;;;;;;;9.23;5.45;;;;;;;;;;4973780;28;20051;-65
2023/09/28 11:40:57;;;;;;;8.40;5.47;;;;;;;;;;4958549;28;20133;-65
2023/09/28 11:43:24;;;;;;;8.73;5.35;;;;;;;;;;4958428;28;20411;-64
2023/09/28 11:45:51;;;;;;;10.23;5.57;;;;;;;;;;4954749;28;20113;-64
2023/09/28 11:48:18;;;;;;;10.38;5.75;;;;;;;;;;4962546;28;20048;-63
2023/09/28 11:50:45;;;;;;;13.52;6.07;;;;;;;;;;4962890;28;20522;-65
2023/09/28 11:53:12;;;;;;;7.50;4.68;;;;;;;;;;4954812;28;20401;-65
2023/09/28 11:55:39;;;;;;;7.43;5.10;;;;;;;;;;4970656;28;20550;-65
2023/09/28 11:58:09;;;;;;;7.30;4.47;;;;;;;;;;4954642;28;20059;-65
2023/09/28 12:00:35;;;;;;;8.52;4.40;;;;;;;;;;4955308;28;20051;-64
2023/09/28 12:03:03;;;;;;;7.65;4.60;;;;;;;;;;4968869;28;20131;-65
2023/09/28 12:05:31;;;;;;;7.30;4.97;;;;;;;;;;4954621;28;20142;-64
2023/09/28 12:07:58;;;;;;;7.53;4.47;;;;;;;;;;4954311;28;20043;-65
2023/09/28 12:10:24;;;;;;;6.10;4.25;;;;;;;;;;4954026;28;20051;-65
2023/09/28 12:12:51;;;;;;;7.18;4.40;;;;;;;;;;4965529;28;20161;-65
2023/09/28 12:15:19;;;;;;;6.63;4.28;;;;;;;;;;4965916;28;20138;-66
2023/09/28 12:17:46;;;;;;;6.78;3.95;;;;;;;;;;4962825;28;20090;-65
2023/09/28 12:20:14;;;;;;;9.82;4.45;;;;;;;;;;4954060;28;20047;-65
2023/09/28 12:22:40;;;;;;;5.47;3.80;;;;;;;;;;4963953;28;20051;-65
2023/09/28 12:25:10;;;;;;;6.60;4.18;;;;;;;;;;4965502;28;20072;-65
2023/09/28 12:27:37;;;;;;;8.73;4.25;;;;;;;;;;4972548;28;20511;-64
2023/09/28 12:30:04;;;;;;;6.25;3.92;;;;;;;;;;4960477;28;20134;-65
2023/09/28 12:32:33;;;;;;;6.80;4.15;;;;;;;;;;4962535;28;20079;-64
2023/09/28 12:35:01;;;;;;;7.00;4.30;;;;;;;;;;4969021;28;20047;-65
2023/09/28 12:37:26;;;;;;;6.40;4.07;;;;;;;;;;4961917;28;20158;-65
2023/09/28 12:39:54;;;;;;;5.38;3.80;;;;;;;;;;4965018;28;20091;-65
2023/09/28 12:42:22;;;;;;;5.88;3.80;;;;;;;;;;4965691;28;20050;-65
2023/09/28 12:44:50;;;;;;;7.07;4.20;;;;;;;;;;4953980;28;20051;-64
2023/09/28 12:47:19;;;;;;;6.82;4.13;;;;;;;;;;4960658;28;20053;-64
2023/09/28 12:49:47;;;;;;;6.43;3.80;;;;;;;;;;4954371;28;20071;-65
2023/09/28 12:52:14;;;;;;;6.85;4.30;;;;;;;;;;4953734;28;20054;-65
2023/09/28 12:54:41;;;;;;;7.38;4.70;;;;;;;;;;4953451;28;20491;-65
2023/09/28 12:57:08;;;;;;;7.32;4.70;;;;;;;;;;4953934;28;20585;-64
2023/09/28 12:59:35;;;;;;;9.38;4.38;;;;;;;;;;4953629;28;20295;-65
2023/09/28 13:02:05;;;;;;;7.45;4.53;;;;;;;;;;4958098;28;20050;-65
2023/09/28 13:04:32;;;;;;;5.78;3.83;;;;;;;;;;4964808;28;20133;-65
2023/09/28 13:07:00;;;;;;;6.45;3.90;;;;;;;;;;4960551;28;20083;-65
2023/09/28 13:09:29;;;;;;;6.60;4.05;;;;;;;;;;4961188;28;20101;-65
2023/09/28 13:11:56;;;;;;;6.45;3.78;;;;;;;;;;4972620;28;20514;-65
2023/09/28 13:14:25;;;;;;;6.28;4.20;;;;;;;;;;4965033;28;20575;-65
2023/09/28 13:16:54;;;;;;;7.78;4.20;;;;;;;;;;4953426;28;20061;-65
2023/09/28 13:19:25;;;;;;;8.00;3.92;;;;;;;;;;4953086;28;20070;-65
2023/09/28 13:21:53;;;;;;;5.90;4.00;;;;;;;;;;4952941;28;20083;-65
2023/09/28 13:24:21;;;;;;;6.07;3.83;;;;;;;;;;4960487;28;20082;-65
2023/09/28 13:26:48;;;;;;;5.88;3.60;;;;;;;;;;4953782;28;20048;-65
2023/09/28 13:29:17;;;;;;;5.72;3.75;;;;;;;;;;4953128;28;20091;-65
2023/09/28 13:31:44;;;;;;;6.80;3.38;;;;;;;;;;4963356;28;20055;-65
2023/09/28 13:34:11;;;;;;;6.32;3.40;;;;;;;;;;4964493;28;20055;-65
2023/09/28 13:36:38;;;;;;;5.13;3.17;;;;;;;;;;4962863;28;20047;-65
2023/09/28 13:39:06;;;;;;;6.05;3.28;;;;;;;;;;4964964;28;20051;-65
2023/09/28 13:41:36;;;;;;;5.25;3.08;;;;;;;;;;4956857;28;20492;-65
2023/09/28 13:44:04;;;;;;;5.20;3.00;;;;;;;;;;4965246;28;20134;-64
2023/09/28 13:46:31;;;;;;;6.07;3.60;;;;;;;;;;4972993;28;20518;-65
2023/09/28 13:48:57;;;;;;;6.03;3.70;;;;;;;;;;4961071;28;20458;-65
2023/09/28 13:51:24;;;;;;;9.23;3.75;;;;;;;;;;4975994;28;20093;-65
2023/09/28 13:53:51;;;;;;;6.38;3.42;;;;;;;;;;4976316;28;20043;-65
2023/09/28 13:56:18;;;;;;;8.25;4.65;;;;;;;;;;4961547;28;20051;-64
2023/09/28 13:58:46;;;;;;;8.65;3.67;;;;;;;;;;4956830;28;20055;-65
2023/09/28 14:01:13;;;;;;;6.18;3.45;;;;;;;;;;4962688;28;20078;-65
2023/09/28 14:03:40;;;;;;;5.93;3.20;;;;;;;;;;4960027;28;20047;-65
2023/09/28 14:06:07;;;;;;;6.03;3.35;;;;;;;;;;4971099;28;20055;-65
2023/09/28 14:08:33;;;;;;;7.50;3.45;;;;;;;;;;4956794;28;20142;-64
2023/09/28 14:11:00;;;;;;;5.70;3.03;;;;;;;;;;4968982;28;20129;-67
2023/09/28 14:13:27;;;;;;;5.93;3.78;;;;;;;;;;4967774;28;20047;-64
2023/09/28 14:15:58;;;;;;;5.50;3.40;;;;;;;;;;4956542;28;20472;-64
2023/09/28 14:18:24;;;;;;;6.47;3.67;;;;;;;;;;4964199;28;20046;-64
2023/09/28 14:20:52;;;;;;;5.22;3.40;;;;;;;;;;4975682;28;20057;-64
2023/09/28 14:23:19;;;;;;;5.30;3.20;;;;;;;;;;4967735;28;20168;-63
2023/09/28 14:25:45;;;;;;;6.60;3.35;;;;;;;;;;4957192;28;20086;-65
2023/09/28 14:28:12;;;;;;;5.35;3.25;;;;;;;;;;4956219;28;20523;-64
2023/09/28 14:30:39;;;;;;;5.43;3.20;;;;;;;;;;4955863;28;20089;-65
2023/09/28 14:33:07;;;;;;;5.85;3.17;;;;;;;;;;4961442;28;20518;-64
2023/09/28 14:35:36;;;;;;;4.90;3.03;;;;;;;;;;4958784;28;20134;-64